sensor_id;sensor_type;location;lat;lon;timestamp;P1;durP1;ratioP1;P2;durP2;ratioP2
1475;SDS011;730;48.870;12.542;2022-11-03T00:01:50;6.87;;;6.27;;
1475;SDS011;730;48.870;12.542;2022-11-03T00:04:17;7.80;;;7.03;;
1475;SDS011;730;48.870;12.542;2022-11-03T00:06:44;7.60;;;6.90;;
1475;SDS011;730;48.870;12.542;2022-11-03T00:09:12;9.10;;;8.20;;
1475;SDS011;730;48.870;12.542;2022-11-03T00:11:40;5.73;;;5.33;;
1475;SDS011;730;48.870;12.542;2022-11-03T00:14:06;5.40;;;5.00;;
1475;SDS011;730;48.870;12.542;2022-11-03T00:16:33;5.00;;;4.60;;
1475;SDS011;730;48.870;12.542;2022-11-03T00:18:59;4.73;;;4.33;;
1475;SDS011;730;48.870;12.542;2022-11-03T00:21:25;3.80;;;3.50;;
1475;SDS011;730;48.870;12.542;2022-11-03T00:23:51;5.70;;;5.20;;
1475;SDS011;730;48.870;12.542;2022-11-03T00:26:35;3.97;;;3.67;;
1475;SDS011;730;48.870;12.542;2022-11-03T00:29:05;4.60;;;3.90;;
1475;SDS011;730;48.870;12.542;2022-11-03T00:31:41;5.13;;;4.63;;
1475;SDS011;730;48.870;12.542;2022-11-03T00:34:07;4.90;;;4.50;;
1475;SDS011;730;48.870;12.542;2022-11-03T00:36:43;6.30;;;5.70;;
1475;SDS011;730;48.870;12.542;2022-11-03T00:39:09;7.37;;;6.70;;
1475;SDS011;730;48.870;12.542;2022-11-03T00:41:36;6.50;;;5.82;;
1475;SDS011;730;48.870;12.542;2022-11-03T00:44:01;6.17;;;5.67;;
1475;SDS011;730;48.870;12.542;2022-11-03T00:46:27;4.50;;;4.10;;
1475;SDS011;730;48.870;12.542;2022-11-03T00:48:54;5.47;;;5.07;;
1475;SDS011;730;48.870;12.542;2022-11-03T00:51:24;5.27;;;4.87;;
1475;SDS011;730;48.870;12.542;2022-11-03T00:53:55;4.60;;;4.20;;
1475;SDS011;730;48.870;12.542;2022-11-03T00:56:26;4.80;;;4.40;;
1475;SDS011;730;48.870;12.542;2022-11-03T00:58:54;4.83;;;4.43;;
1475;SDS011;730;48.870;12.542;2022-11-03T01:01:25;4.87;;;4.43;;
1475;SDS011;730;48.870;12.542;2022-11-03T01:04:01;5.43;;;5.00;;
1475;SDS011;730;48.870;12.542;2022-11-03T01:06:47;4.88;;;4.47;;
1475;SDS011;730;48.870;12.542;2022-11-03T01:09:15;5.40;;;4.90;;
1475;SDS011;730;48.870;12.542;2022-11-03T01:12:07;5.20;;;4.80;;
1475;SDS011;730;48.870;12.542;2022-11-03T01:14:48;5.90;;;5.30;;
1475;SDS011;730;48.870;12.542;2022-11-03T01:17:19;8.88;;;6.10;;
1475;SDS011;730;48.870;12.542;2022-11-03T01:19:49;6.63;;;5.67;;
1475;SDS011;730;48.870;12.542;2022-11-03T01:22:16;8.07;;;7.37;;
1475;SDS011;730;48.870;12.542;2022-11-03T01:24:43;6.63;;;6.00;;
1475;SDS011;730;48.870;12.542;2022-11-03T01:27:10;6.13;;;5.50;;
1475;SDS011;730;48.870;12.542;2022-11-03T01:29:37;5.97;;;5.38;;
1475;SDS011;730;48.870;12.542;2022-11-03T01:32:03;5.43;;;4.93;;
1475;SDS011;730;48.870;12.542;2022-11-03T01:34:29;5.63;;;5.13;;
1475;SDS011;730;48.870;12.542;2022-11-03T01:36:54;6.00;;;5.50;;
1475;SDS011;730;48.870;12.542;2022-11-03T01:39:20;6.00;;;5.50;;
1475;SDS011;730;48.870;12.542;2022-11-03T01:41:46;7.37;;;6.63;;
1475;SDS011;730;48.870;12.542;2022-11-03T01:46:46;7.43;;;5.90;;
1475;SDS011;730;48.870;12.542;2022-11-03T01:49:54;6.10;;;5.53;;
1475;SDS011;730;48.870;12.542;2022-11-03T01:54:49;7.77;;;6.07;;
1475;SDS011;730;48.870;12.542;2022-11-03T01:57:21;6.35;;;5.85;;
1475;SDS011;730;48.870;12.542;2022-11-03T01:59:52;6.30;;;5.70;;
1475;SDS011;730;48.870;12.542;2022-11-03T02:02:21;5.77;;;5.23;;
1475;SDS011;730;48.870;12.542;2022-11-03T02:04:47;7.77;;;6.97;;
1475;SDS011;730;48.870;12.542;2022-11-03T02:07:21;7.10;;;6.40;;
1475;SDS011;730;48.870;12.542;2022-11-03T02:09:48;8.38;;;6.68;;
1475;SDS011;730;48.870;12.542;2022-11-03T02:12:14;6.30;;;5.70;;
1475;SDS011;730;48.870;12.542;2022-11-03T02:14:42;5.90;;;5.30;;
1475;SDS011;730;48.870;12.542;2022-11-03T02:17:30;5.67;;;5.20;;
1475;SDS011;730;48.870;12.542;2022-11-03T02:19:59;6.07;;;5.57;;
1475;SDS011;730;48.870;12.542;2022-11-03T02:22:49;6.23;;;5.73;;
1475;SDS011;730;48.870;12.542;2022-11-03T02:25:32;6.20;;;5.67;;
1475;SDS011;730;48.870;12.542;2022-11-03T02:28:28;7.05;;;5.20;;
1475;SDS011;730;48.870;12.542;2022-11-03T02:33:58;5.72;;;5.15;;
1475;SDS011;730;48.870;12.542;2022-11-03T02:39:20;6.15;;;5.65;;
1475;SDS011;730;48.870;12.542;2022-11-03T02:41:49;5.70;;;5.15;;
1475;SDS011;730;48.870;12.542;2022-11-03T02:44:18;8.65;;;5.80;;
1475;SDS011;730;48.870;12.542;2022-11-03T02:46:45;6.68;;;5.10;;
1475;SDS011;730;48.870;12.542;2022-11-03T02:49:18;5.47;;;5.07;;
1475;SDS011;730;48.870;12.542;2022-11-03T02:51:44;6.27;;;5.77;;
1475;SDS011;730;48.870;12.542;2022-11-03T02:56:46;6.70;;;6.10;;
1475;SDS011;730;48.870;12.542;2022-11-03T02:59:16;6.40;;;5.82;;
1475;SDS011;730;48.870;12.542;2022-11-03T03:01:58;5.90;;;5.40;;
1475;SDS011;730;48.870;12.542;2022-11-03T03:04:44;5.80;;;5.30;;
1475;SDS011;730;48.870;12.542;2022-11-03T03:07:18;5.73;;;5.23;;
1475;SDS011;730;48.870;12.542;2022-11-03T03:09:56;6.20;;;5.65;;
1475;SDS011;730;48.870;12.542;2022-11-03T03:12:31;5.57;;;5.07;;
1475;SDS011;730;48.870;12.542;2022-11-03T03:15:01;5.90;;;5.40;;
1475;SDS011;730;48.870;12.542;2022-11-03T03:17:31;7.03;;;6.43;;
1475;SDS011;730;48.870;12.542;2022-11-03T03:20:13;5.40;;;4.90;;
1475;SDS011;730;48.870;12.542;2022-11-03T03:27:41;6.75;;;6.15;;
1475;SDS011;730;48.870;12.542;2022-11-03T03:30:10;6.32;;;5.72;;
1475;SDS011;730;48.870;12.542;2022-11-03T03:32:37;6.20;;;5.63;;
1475;SDS011;730;48.870;12.542;2022-11-03T03:35:05;6.30;;;5.70;;
1475;SDS011;730;48.870;12.542;2022-11-03T03:37:35;6.10;;;5.60;;
1475;SDS011;730;48.870;12.542;2022-11-03T03:40:04;6.18;;;5.60;;
1475;SDS011;730;48.870;12.542;2022-11-03T03:42:34;7.15;;;6.45;;
1475;SDS011;730;48.870;12.542;2022-11-03T03:45:01;6.07;;;5.47;;
1475;SDS011;730;48.870;12.542;2022-11-03T03:47:30;5.40;;;4.90;;
1475;SDS011;730;48.870;12.542;2022-11-03T03:49:57;7.07;;;6.47;;
1475;SDS011;730;48.870;12.542;2022-11-03T03:52:24;6.82;;;6.30;;
1475;SDS011;730;48.870;12.542;2022-11-03T03:54:50;5.90;;;5.40;;
1475;SDS011;730;48.870;12.542;2022-11-03T03:57:17;5.90;;;5.40;;
1475;SDS011;730;48.870;12.542;2022-11-03T03:59:45;7.47;;;6.77;;
1475;SDS011;730;48.870;12.542;2022-11-03T04:02:11;6.30;;;5.70;;
1475;SDS011;730;48.870;12.542;2022-11-03T04:04:38;6.40;;;5.73;;
1475;SDS011;730;48.870;12.542;2022-11-03T04:07:04;6.68;;;6.07;;
1475;SDS011;730;48.870;12.542;2022-11-03T04:09:55;5.35;;;4.95;;
1475;SDS011;730;48.870;12.542;2022-11-03T04:12:21;6.50;;;5.67;;
1475;SDS011;730;48.870;12.542;2022-11-03T04:15:05;4.90;;;4.50;;
1475;SDS011;730;48.870;12.542;2022-11-03T04:17:51;5.13;;;4.63;;
1475;SDS011;730;48.870;12.542;2022-11-03T04:20:35;6.03;;;5.53;;
1475;SDS011;730;48.870;12.542;2022-11-03T04:23:19;5.90;;;5.30;;
1475;SDS011;730;48.870;12.542;2022-11-03T04:25:52;6.67;;;6.07;;
1475;SDS011;730;48.870;12.542;2022-11-03T04:28:19;5.90;;;5.40;;
1475;SDS011;730;48.870;12.542;2022-11-03T04:30:46;5.40;;;4.90;;
1475;SDS011;730;48.870;12.542;2022-11-03T04:33:16;5.82;;;5.32;;
1475;SDS011;730;48.870;12.542;2022-11-03T04:35:43;4.90;;;4.50;;
1475;SDS011;730;48.870;12.542;2022-11-03T04:40:45;5.65;;;5.15;;
1475;SDS011;730;48.870;12.542;2022-11-03T04:43:13;5.40;;;4.90;;
1475;SDS011;730;48.870;12.542;2022-11-03T04:45:41;13.43;;;12.10;;
1475;SDS011;730;48.870;12.542;2022-11-03T04:48:12;5.10;;;4.70;;
1475;SDS011;730;48.870;12.542;2022-11-03T04:50:48;5.13;;;4.72;;
1475;SDS011;730;48.870;12.542;2022-11-03T04:53:23;4.63;;;4.10;;
1475;SDS011;730;48.870;12.542;2022-11-03T04:55:52;4.38;;;3.95;;
1475;SDS011;730;48.870;12.542;2022-11-03T04:58:21;4.82;;;4.43;;
1475;SDS011;730;48.870;12.542;2022-11-03T05:00:51;5.25;;;4.78;;
1475;SDS011;730;48.870;12.542;2022-11-03T05:03:22;5.82;;;3.42;;
1475;SDS011;730;48.870;12.542;2022-11-03T05:05:49;4.70;;;4.30;;
1475;SDS011;730;48.870;12.542;2022-11-03T05:08:19;5.00;;;4.60;;
1475;SDS011;730;48.870;12.542;2022-11-03T05:10:45;4.50;;;4.10;;
1475;SDS011;730;48.870;12.542;2022-11-03T05:13:24;4.97;;;4.57;;
1475;SDS011;730;48.870;12.542;2022-11-03T05:15:52;4.88;;;4.47;;
1475;SDS011;730;48.870;12.542;2022-11-03T05:18:41;4.88;;;4.47;;
1475;SDS011;730;48.870;12.542;2022-11-03T05:21:08;5.28;;;4.88;;
1475;SDS011;730;48.870;12.542;2022-11-03T05:23:38;5.47;;;4.97;;
1475;SDS011;730;48.870;12.542;2022-11-03T05:26:06;5.93;;;5.47;;
1475;SDS011;730;48.870;12.542;2022-11-03T05:28:41;6.47;;;5.95;;
1475;SDS011;730;48.870;12.542;2022-11-03T05:31:14;6.68;;;6.07;;
1475;SDS011;730;48.870;12.542;2022-11-03T05:33:52;4.80;;;4.40;;
1475;SDS011;730;48.870;12.542;2022-11-03T05:36:21;7.32;;;4.80;;
1475;SDS011;730;48.870;12.542;2022-11-03T05:38:49;6.10;;;5.50;;
1475;SDS011;730;48.870;12.542;2022-11-03T05:41:24;6.70;;;5.93;;
1475;SDS011;730;48.870;12.542;2022-11-03T05:44:01;7.00;;;6.35;;
1475;SDS011;730;48.870;12.542;2022-11-03T05:46:34;5.47;;;4.97;;
1475;SDS011;730;48.870;12.542;2022-11-03T05:49:00;5.00;;;4.60;;
1475;SDS011;730;48.870;12.542;2022-11-03T05:51:28;5.50;;;5.00;;
1475;SDS011;730;48.870;12.542;2022-11-03T05:53:59;5.03;;;4.63;;
1475;SDS011;730;48.870;12.542;2022-11-03T05:56:27;4.53;;;4.13;;
1475;SDS011;730;48.870;12.542;2022-11-03T05:58:57;4.65;;;4.25;;
1475;SDS011;730;48.870;12.542;2022-11-03T06:01:25;6.25;;;4.93;;
1475;SDS011;730;48.870;12.542;2022-11-03T06:03:55;4.78;;;4.38;;
1475;SDS011;730;48.870;12.542;2022-11-03T06:06:24;4.60;;;4.20;;
1475;SDS011;730;48.870;12.542;2022-11-03T06:08:52;4.25;;;3.85;;
1475;SDS011;730;48.870;12.542;2022-11-03T06:11:21;3.78;;;3.50;;
1475;SDS011;730;48.870;12.542;2022-11-03T06:13:55;4.35;;;3.95;;
1475;SDS011;730;48.870;12.542;2022-11-03T06:16:30;4.65;;;4.25;;
1475;SDS011;730;48.870;12.542;2022-11-03T06:19:02;4.27;;;3.93;;
1475;SDS011;730;48.870;12.542;2022-11-03T06:21:44;4.70;;;4.30;;
1475;SDS011;730;48.870;12.542;2022-11-03T06:24:11;4.72;;;4.38;;
1475;SDS011;730;48.870;12.542;2022-11-03T06:26:39;4.78;;;4.30;;
1475;SDS011;730;48.870;12.542;2022-11-03T06:29:10;4.85;;;4.45;;
1475;SDS011;730;48.870;12.542;2022-11-03T06:31:38;6.97;;;4.63;;
1475;SDS011;730;48.870;12.542;2022-11-03T06:34:04;4.00;;;3.70;;
1475;SDS011;730;48.870;12.542;2022-11-03T06:36:46;5.65;;;5.05;;
1475;SDS011;730;48.870;12.542;2022-11-03T06:39:18;6.57;;;5.97;;
1475;SDS011;730;48.870;12.542;2022-11-03T06:41:47;23.35;;;20.83;;
1475;SDS011;730;48.870;12.542;2022-11-03T06:44:23;13.63;;;12.27;;
1475;SDS011;730;48.870;12.542;2022-11-03T06:46:50;20.85;;;18.77;;
1475;SDS011;730;48.870;12.542;2022-11-03T06:49:27;6.35;;;5.78;;
1475;SDS011;730;48.870;12.542;2022-11-03T06:51:54;7.32;;;6.53;;
1475;SDS011;730;48.870;12.542;2022-11-03T06:54:21;9.10;;;8.20;;
1475;SDS011;730;48.870;12.542;2022-11-03T06:56:46;9.43;;;8.53;;
1475;SDS011;730;48.870;12.542;2022-11-03T06:59:12;9.23;;;8.43;;
1475;SDS011;730;48.870;12.542;2022-11-03T07:01:39;6.45;;;5.95;;
1475;SDS011;730;48.870;12.542;2022-11-03T07:04:18;3.77;;;3.47;;
1475;SDS011;730;48.870;12.542;2022-11-03T07:06:45;4.40;;;4.00;;
1475;SDS011;730;48.870;12.542;2022-11-03T07:09:13;4.88;;;4.47;;
1475;SDS011;730;48.870;12.542;2022-11-03T07:14:13;4.13;;;3.83;;
1475;SDS011;730;48.870;12.542;2022-11-03T07:19:41;6.07;;;5.65;;
1475;SDS011;730;48.870;12.542;2022-11-03T07:24:40;4.65;;;4.25;;
1475;SDS011;730;48.870;12.542;2022-11-03T07:27:22;8.03;;;5.60;;
1475;SDS011;730;48.870;12.542;2022-11-03T07:29:56;4.30;;;3.90;;
1475;SDS011;730;48.870;12.542;2022-11-03T07:32:23;5.38;;;4.90;;
1475;SDS011;730;48.870;12.542;2022-11-03T07:35:40;4.67;;;4.27;;
1475;SDS011;730;48.870;12.542;2022-11-03T07:37:40;4.80;;;4.40;;
1475;SDS011;730;48.870;12.542;2022-11-03T07:40:14;5.57;;;5.07;;
1475;SDS011;730;48.870;12.542;2022-11-03T07:42:42;5.30;;;4.80;;
1475;SDS011;730;48.870;12.542;2022-11-03T07:50:53;3.90;;;3.60;;
1475;SDS011;730;48.870;12.542;2022-11-03T07:53:34;5.20;;;4.10;;
1475;SDS011;730;48.870;12.542;2022-11-03T07:57:05;6.20;;;5.70;;
1475;SDS011;730;48.870;12.542;2022-11-03T07:59:19;4.90;;;4.50;;
1475;SDS011;730;48.870;12.542;2022-11-03T08:01:52;4.93;;;4.50;;
1475;SDS011;730;48.870;12.542;2022-11-03T08:04:20;3.77;;;3.47;;
1475;SDS011;730;48.870;12.542;2022-11-03T08:06:48;3.80;;;3.50;;
1475;SDS011;730;48.870;12.542;2022-11-03T08:09:14;4.00;;;3.60;;
1475;SDS011;730;48.870;12.542;2022-11-03T08:11:40;4.50;;;4.20;;
1475;SDS011;730;48.870;12.542;2022-11-03T08:14:06;4.60;;;4.20;;
1475;SDS011;730;48.870;12.542;2022-11-03T08:16:31;4.03;;;3.63;;
1475;SDS011;730;48.870;12.542;2022-11-03T08:18:57;4.10;;;3.77;;
1475;SDS011;730;48.870;12.542;2022-11-03T08:21:22;3.00;;;2.60;;
1475;SDS011;730;48.870;12.542;2022-11-03T08:23:48;3.03;;;2.80;;
1475;SDS011;730;48.870;12.542;2022-11-03T08:26:14;3.40;;;3.10;;
1475;SDS011;730;48.870;12.542;2022-11-03T08:28:40;3.73;;;3.43;;
1475;SDS011;730;48.870;12.542;2022-11-03T08:31:05;3.20;;;2.90;;
1475;SDS011;730;48.870;12.542;2022-11-03T08:33:31;3.73;;;2.90;;
1475;SDS011;730;48.870;12.542;2022-11-03T08:35:58;3.60;;;3.03;;
1475;SDS011;730;48.870;12.542;2022-11-03T08:38:24;3.17;;;2.90;;
1475;SDS011;730;48.870;12.542;2022-11-03T08:40:50;3.40;;;3.10;;
1475;SDS011;730;48.870;12.542;2022-11-03T08:43:16;4.17;;;3.77;;
1475;SDS011;730;48.870;12.542;2022-11-03T08:45:42;4.07;;;3.50;;
1475;SDS011;730;48.870;12.542;2022-11-03T08:48:07;3.70;;;3.17;;
1475;SDS011;730;48.870;12.542;2022-11-03T08:50:33;4.40;;;3.43;;
1475;SDS011;730;48.870;12.542;2022-11-03T08:52:59;3.57;;;3.27;;
1475;SDS011;730;48.870;12.542;2022-11-03T08:55:24;4.77;;;3.77;;
1475;SDS011;730;48.870;12.542;2022-11-03T08:57:50;3.63;;;2.93;;
1475;SDS011;730;48.870;12.542;2022-11-03T09:00:16;3.50;;;3.20;;
1475;SDS011;730;48.870;12.542;2022-11-03T09:02:42;4.20;;;3.40;;
1475;SDS011;730;48.870;12.542;2022-11-03T09:05:08;4.07;;;3.70;;
1475;SDS011;730;48.870;12.542;2022-11-03T09:07:36;3.83;;;3.47;;
1475;SDS011;730;48.870;12.542;2022-11-03T09:10:06;6.17;;;3.83;;
1475;SDS011;730;48.870;12.542;2022-11-03T09:12:33;3.50;;;3.20;;
1475;SDS011;730;48.870;12.542;2022-11-03T09:14:59;4.03;;;3.30;;
1475;SDS011;730;48.870;12.542;2022-11-03T09:17:25;3.83;;;3.40;;
1475;SDS011;730;48.870;12.542;2022-11-03T09:19:50;3.80;;;3.00;;
1475;SDS011;730;48.870;12.542;2022-11-03T09:22:16;4.30;;;3.87;;
1475;SDS011;730;48.870;12.542;2022-11-03T09:24:41;3.60;;;3.30;;
1475;SDS011;730;48.870;12.542;2022-11-03T09:27:07;7.97;;;3.87;;
1475;SDS011;730;48.870;12.542;2022-11-03T09:29:33;3.90;;;3.40;;
1475;SDS011;730;48.870;12.542;2022-11-03T09:31:58;4.40;;;3.00;;
1475;SDS011;730;48.870;12.542;2022-11-03T09:34:24;4.23;;;3.00;;
1475;SDS011;730;48.870;12.542;2022-11-03T09:36:49;3.30;;;3.10;;
1475;SDS011;730;48.870;12.542;2022-11-03T09:39:16;3.70;;;2.77;;
1475;SDS011;730;48.870;12.542;2022-11-03T09:41:41;3.40;;;3.10;;
1475;SDS011;730;48.870;12.542;2022-11-03T09:44:07;4.13;;;2.73;;
1475;SDS011;730;48.870;12.542;2022-11-03T09:46:34;4.30;;;2.77;;
1475;SDS011;730;48.870;12.542;2022-11-03T09:48:59;2.90;;;2.60;;
1475;SDS011;730;48.870;12.542;2022-11-03T09:51:26;3.70;;;2.73;;
1475;SDS011;730;48.870;12.542;2022-11-03T09:53:54;4.10;;;2.10;;
1475;SDS011;730;48.870;12.542;2022-11-03T09:56:21;5.47;;;3.03;;
1475;SDS011;730;48.870;12.542;2022-11-03T09:58:49;4.20;;;2.60;;
1475;SDS011;730;48.870;12.542;2022-11-03T10:01:14;2.63;;;2.40;;
1475;SDS011;730;48.870;12.542;2022-11-03T10:03:40;3.13;;;2.83;;
1475;SDS011;730;48.870;12.542;2022-11-03T10:06:06;4.40;;;3.13;;
1475;SDS011;730;48.870;12.542;2022-11-03T10:08:33;3.30;;;3.10;;
1475;SDS011;730;48.870;12.542;2022-11-03T10:11:01;6.03;;;3.00;;
1475;SDS011;730;48.870;12.542;2022-11-03T10:13:32;3.87;;;2.90;;
1475;SDS011;730;48.870;12.542;2022-11-03T10:16:01;3.40;;;3.10;;
1475;SDS011;730;48.870;12.542;2022-11-03T10:18:30;3.03;;;2.73;;
1475;SDS011;730;48.870;12.542;2022-11-03T10:20:57;3.43;;;2.90;;
1475;SDS011;730;48.870;12.542;2022-11-03T10:23:31;4.70;;;2.37;;
1475;SDS011;730;48.870;12.542;2022-11-03T10:26:16;3.43;;;2.60;;
1475;SDS011;730;48.870;12.542;2022-11-03T10:29:03;4.83;;;3.27;;
1475;SDS011;730;48.870;12.542;2022-11-03T10:31:35;2.90;;;2.17;;
1475;SDS011;730;48.870;12.542;2022-11-03T10:34:03;5.07;;;2.73;;
1475;SDS011;730;48.870;12.542;2022-11-03T10:36:30;4.13;;;2.40;;
1475;SDS011;730;48.870;12.542;2022-11-03T10:38:57;5.73;;;2.50;;
1475;SDS011;730;48.870;12.542;2022-11-03T10:44:03;4.50;;;2.90;;
1475;SDS011;730;48.870;12.542;2022-11-03T10:46:34;6.70;;;2.33;;
1475;SDS011;730;48.870;12.542;2022-11-03T10:49:02;3.47;;;2.37;;
1475;SDS011;730;48.870;12.542;2022-11-03T10:51:28;3.07;;;2.73;;
1475;SDS011;730;48.870;12.542;2022-11-03T10:53:54;4.50;;;2.50;;
1475;SDS011;730;48.870;12.542;2022-11-03T10:56:20;3.87;;;3.50;;
1475;SDS011;730;48.870;12.542;2022-11-03T10:58:46;4.47;;;3.00;;
1475;SDS011;730;48.870;12.542;2022-11-03T11:01:13;4.60;;;3.30;;
1475;SDS011;730;48.870;12.542;2022-11-03T11:03:40;5.20;;;2.87;;
1475;SDS011;730;48.870;12.542;2022-11-03T11:06:29;4.10;;;3.20;;
1475;SDS011;730;48.870;12.542;2022-11-03T11:08:55;6.13;;;3.37;;
1475;SDS011;730;48.870;12.542;2022-11-03T11:11:25;3.20;;;2.90;;
1475;SDS011;730;48.870;12.542;2022-11-03T11:14:19;3.87;;;2.53;;
1475;SDS011;730;48.870;12.542;2022-11-03T11:17:14;2.67;;;2.47;;
1475;SDS011;730;48.870;12.542;2022-11-03T11:22:46;5.03;;;2.87;;
1475;SDS011;730;48.870;12.542;2022-11-03T11:25:13;5.13;;;2.70;;
1475;SDS011;730;48.870;12.542;2022-11-03T11:30:06;5.47;;;2.60;;
1475;SDS011;730;48.870;12.542;2022-11-03T11:32:59;5.23;;;3.13;;
1475;SDS011;730;48.870;12.542;2022-11-03T11:41:05;2.90;;;2.50;;
1475;SDS011;730;48.870;12.542;2022-11-03T11:43:30;5.47;;;3.10;;
1475;SDS011;730;48.870;12.542;2022-11-03T11:51:21;5.33;;;2.97;;
1475;SDS011;730;48.870;12.542;2022-11-03T11:53:47;4.27;;;2.30;;
1475;SDS011;730;48.870;12.542;2022-11-03T11:56:15;3.67;;;2.43;;
1475;SDS011;730;48.870;12.542;2022-11-03T11:58:43;3.37;;;2.70;;
1475;SDS011;730;48.870;12.542;2022-11-03T12:03:59;2.90;;;2.30;;
1475;SDS011;730;48.870;12.542;2022-11-03T12:06:32;4.43;;;2.60;;
1475;SDS011;730;48.870;12.542;2022-11-03T12:11:49;4.50;;;2.90;;
1475;SDS011;730;48.870;12.542;2022-11-03T12:14:36;5.43;;;2.87;;
1475;SDS011;730;48.870;12.542;2022-11-03T12:19:41;6.67;;;2.73;;
1475;SDS011;730;48.870;12.542;2022-11-03T12:25:35;3.10;;;2.10;;
1475;SDS011;730;48.870;12.542;2022-11-03T12:27:52;3.30;;;2.10;;
1475;SDS011;730;48.870;12.542;2022-11-03T12:30:18;3.80;;;2.40;;
1475;SDS011;730;48.870;12.542;2022-11-03T12:32:44;5.27;;;2.93;;
1475;SDS011;730;48.870;12.542;2022-11-03T12:35:11;3.30;;;2.40;;
1475;SDS011;730;48.870;12.542;2022-11-03T12:37:37;3.40;;;2.23;;
1475;SDS011;730;48.870;12.542;2022-11-03T12:40:04;8.10;;;3.10;;
1475;SDS011;730;48.870;12.542;2022-11-03T12:42:30;3.67;;;2.70;;
1475;SDS011;730;48.870;12.542;2022-11-03T12:44:56;6.23;;;2.67;;
1475;SDS011;730;48.870;12.542;2022-11-03T12:47:21;3.27;;;2.50;;
1475;SDS011;730;48.870;12.542;2022-11-03T12:49:47;4.20;;;3.17;;
1475;SDS011;730;48.870;12.542;2022-11-03T12:52:13;24.37;;;5.30;;
1475;SDS011;730;48.870;12.542;2022-11-03T12:54:39;3.77;;;2.67;;
1475;SDS011;730;48.870;12.542;2022-11-03T12:57:06;3.43;;;2.17;;
1475;SDS011;730;48.870;12.542;2022-11-03T12:59:31;3.80;;;2.87;;
1475;SDS011;730;48.870;12.542;2022-11-03T13:01:57;6.00;;;2.90;;
1475;SDS011;730;48.870;12.542;2022-11-03T13:04:23;3.20;;;2.90;;
1475;SDS011;730;48.870;12.542;2022-11-03T13:06:48;3.93;;;2.50;;
1475;SDS011;730;48.870;12.542;2022-11-03T13:09:14;4.33;;;2.50;;
1475;SDS011;730;48.870;12.542;2022-11-03T13:11:39;3.47;;;2.63;;
1475;SDS011;730;48.870;12.542;2022-11-03T13:14:24;4.50;;;3.10;;
1475;SDS011;730;48.870;12.542;2022-11-03T13:16:50;5.50;;;3.10;;
1475;SDS011;730;48.870;12.542;2022-11-03T13:19:16;5.13;;;3.37;;
1475;SDS011;730;48.870;12.542;2022-11-03T13:21:41;3.80;;;3.40;;
1475;SDS011;730;48.870;12.542;2022-11-03T13:24:07;3.97;;;2.90;;
1475;SDS011;730;48.870;12.542;2022-11-03T13:26:32;3.83;;;2.90;;
1475;SDS011;730;48.870;12.542;2022-11-03T13:28:58;4.80;;;3.23;;
1475;SDS011;730;48.870;12.542;2022-11-03T13:31:24;4.40;;;3.13;;
1475;SDS011;730;48.870;12.542;2022-11-03T13:33:49;4.33;;;3.10;;
1475;SDS011;730;48.870;12.542;2022-11-03T13:36:16;3.20;;;2.50;;
1475;SDS011;730;48.870;12.542;2022-11-03T13:38:41;3.07;;;2.60;;
1475;SDS011;730;48.870;12.542;2022-11-03T13:41:07;5.97;;;2.90;;
1475;SDS011;730;48.870;12.542;2022-11-03T13:43:33;4.03;;;3.00;;
1475;SDS011;730;48.870;12.542;2022-11-03T13:45:58;3.27;;;2.60;;
1475;SDS011;730;48.870;12.542;2022-11-03T13:48:26;3.60;;;2.87;;
1475;SDS011;730;48.870;12.542;2022-11-03T13:50:52;4.83;;;3.20;;
1475;SDS011;730;48.870;12.542;2022-11-03T13:53:18;4.93;;;3.73;;
1475;SDS011;730;48.870;12.542;2022-11-03T13:55:43;4.40;;;3.60;;
1475;SDS011;730;48.870;12.542;2022-11-03T13:58:09;5.17;;;3.27;;
1475;SDS011;730;48.870;12.542;2022-11-03T14:00:35;3.87;;;3.37;;
1475;SDS011;730;48.870;12.542;2022-11-03T14:03:01;4.27;;;3.70;;
1475;SDS011;730;48.870;12.542;2022-11-03T14:05:26;6.77;;;4.33;;
1475;SDS011;730;48.870;12.542;2022-11-03T14:07:52;6.90;;;5.43;;
1475;SDS011;730;48.870;12.542;2022-11-03T14:10:17;9.90;;;6.10;;
1475;SDS011;730;48.870;12.542;2022-11-03T14:12:43;5.33;;;4.50;;
1475;SDS011;730;48.870;12.542;2022-11-03T14:15:09;4.63;;;4.00;;
1475;SDS011;730;48.870;12.542;2022-11-03T14:17:36;7.50;;;6.80;;
1475;SDS011;730;48.870;12.542;2022-11-03T14:20:03;5.30;;;3.63;;
1475;SDS011;730;48.870;12.542;2022-11-03T14:22:30;4.60;;;3.33;;
1475;SDS011;730;48.870;12.542;2022-11-03T14:24:56;3.73;;;3.13;;
1475;SDS011;730;48.870;12.542;2022-11-03T14:27:21;3.27;;;2.60;;
1475;SDS011;730;48.870;12.542;2022-11-03T14:29:47;5.63;;;4.33;;
1475;SDS011;730;48.870;12.542;2022-11-03T14:32:17;4.70;;;3.63;;
1475;SDS011;730;48.870;12.542;2022-11-03T14:34:44;3.60;;;3.30;;
1475;SDS011;730;48.870;12.542;2022-11-03T14:37:10;5.90;;;3.50;;
1475;SDS011;730;48.870;12.542;2022-11-03T14:39:36;6.17;;;3.60;;
1475;SDS011;730;48.870;12.542;2022-11-03T14:42:03;5.00;;;3.07;;
1475;SDS011;730;48.870;12.542;2022-11-03T14:44:32;5.47;;;3.57;;
1475;SDS011;730;48.870;12.542;2022-11-03T14:47:02;5.90;;;3.03;;
1475;SDS011;730;48.870;12.542;2022-11-03T14:49:29;5.50;;;3.47;;
1475;SDS011;730;48.870;12.542;2022-11-03T14:51:56;3.97;;;3.57;;
1475;SDS011;730;48.870;12.542;2022-11-03T14:54:23;5.80;;;3.50;;
1475;SDS011;730;48.870;12.542;2022-11-03T14:56:50;4.63;;;3.53;;
1475;SDS011;730;48.870;12.542;2022-11-03T14:59:16;4.50;;;3.90;;
1475;SDS011;730;48.870;12.542;2022-11-03T15:01:42;5.43;;;4.10;;
1475;SDS011;730;48.870;12.542;2022-11-03T15:04:08;4.10;;;3.60;;
1475;SDS011;730;48.870;12.542;2022-11-03T15:06:34;4.17;;;2.87;;
1475;SDS011;730;48.870;12.542;2022-11-03T15:09:00;6.50;;;3.70;;
1475;SDS011;730;48.870;12.542;2022-11-03T15:11:27;5.70;;;3.63;;
1475;SDS011;730;48.870;12.542;2022-11-03T15:13:52;4.90;;;3.70;;
1475;SDS011;730;48.870;12.542;2022-11-03T15:16:19;7.20;;;4.63;;
1475;SDS011;730;48.870;12.542;2022-11-03T15:18:45;4.90;;;3.83;;
1475;SDS011;730;48.870;12.542;2022-11-03T15:21:11;13.93;;;4.73;;
1475;SDS011;730;48.870;12.542;2022-11-03T15:23:36;7.00;;;4.00;;
1475;SDS011;730;48.870;12.542;2022-11-03T15:26:02;4.33;;;3.67;;
1475;SDS011;730;48.870;12.542;2022-11-03T15:28:28;25.17;;;23.17;;
1475;SDS011;730;48.870;12.542;2022-11-03T15:30:53;21.83;;;20.23;;
1475;SDS011;730;48.870;12.542;2022-11-03T15:33:19;8.00;;;6.83;;
1475;SDS011;730;48.870;12.542;2022-11-03T15:35:45;4.80;;;4.10;;
1475;SDS011;730;48.870;12.542;2022-11-03T15:38:10;4.53;;;4.13;;
1475;SDS011;730;48.870;12.542;2022-11-03T15:40:36;5.57;;;3.47;;
1475;SDS011;730;48.870;12.542;2022-11-03T15:43:02;5.73;;;4.07;;
1475;SDS011;730;48.870;12.542;2022-11-03T15:45:30;5.13;;;3.83;;
1475;SDS011;730;48.870;12.542;2022-11-03T15:47:56;7.93;;;5.10;;
1475;SDS011;730;48.870;12.542;2022-11-03T15:50:22;6.23;;;5.57;;
1475;SDS011;730;48.870;12.542;2022-11-03T15:52:47;8.33;;;5.50;;
1475;SDS011;730;48.870;12.542;2022-11-03T15:55:13;7.70;;;5.90;;
1475;SDS011;730;48.870;12.542;2022-11-03T15:57:38;6.70;;;5.53;;
1475;SDS011;730;48.870;12.542;2022-11-03T16:00:04;5.97;;;4.37;;
1475;SDS011;730;48.870;12.542;2022-11-03T16:02:30;8.00;;;5.47;;
1475;SDS011;730;48.870;12.542;2022-11-03T16:04:56;9.60;;;6.30;;
1475;SDS011;730;48.870;12.542;2022-11-03T16:07:22;7.00;;;6.20;;
1475;SDS011;730;48.870;12.542;2022-11-03T16:09:48;7.43;;;6.50;;
1475;SDS011;730;48.870;12.542;2022-11-03T16:12:13;6.70;;;6.10;;
1475;SDS011;730;48.870;12.542;2022-11-03T16:14:39;6.90;;;6.27;;
1475;SDS011;730;48.870;12.542;2022-11-03T16:17:05;8.93;;;5.40;;
1475;SDS011;730;48.870;12.542;2022-11-03T16:19:31;7.27;;;5.80;;
1475;SDS011;730;48.870;12.542;2022-11-03T16:21:56;14.00;;;11.73;;
1475;SDS011;730;48.870;12.542;2022-11-03T16:24:22;12.43;;;11.20;;
1475;SDS011;730;48.870;12.542;2022-11-03T16:26:47;11.90;;;10.57;;
1475;SDS011;730;48.870;12.542;2022-11-03T16:29:14;12.67;;;11.00;;
1475;SDS011;730;48.870;12.542;2022-11-03T16:31:40;13.43;;;11.93;;
1475;SDS011;730;48.870;12.542;2022-11-03T16:34:06;21.27;;;16.23;;